Time;durP1;ratioP1;P1;durP2;ratioP2;P2;SDS_P1;SDS_P2;PMS_P1;PMS_P2;Temp;Humidity;BMP_temperature;BMP_pressure;BME280_temperature;BME280_humidity;BME280_pressure;Samples;Min_cycle;Max_cycle;Signal;HPM_P1;HPM_P2
2021/12/01 04:12:31;;;;;;;;;;;;;;;1.73;95.88;98574.38;5205805;23;19973;-84
2021/12/01 04:14:57;;;;;;;;;;;;;;;1.61;95.51;98574.69;4956797;28;20270;-85
2021/12/01 04:17:22;;;;;;;;;;;;;;;1.56;95.31;98580.03;4955511;28;19919;-84
2021/12/01 04:19:47;;;;;;;;;;;;;;;1.54;95.63;98568.78;4937853;29;19922;-83
2021/12/01 04:22:12;;;;;;;;;;;;;;;1.35;95.23;98552.72;4956142;28;19926;-82
2021/12/01 04:24:38;;;;;;;;;;;;;;;1.58;96.97;98549.53;4955900;28;19945;-83
2021/12/01 04:27:03;;;;;;;;;;;;;;;2.04;99.32;98534.34;4954395;28;19919;-83
2021/12/01 04:29:29;;;;;;;;;;;;;;;2.33;100.00;98538.75;4955701;28;20396;-83
2021/12/01 04:31:54;;;;;;;;;;;;;;;2.46;100.00;98535.78;4955617;28;19926;-84
2021/12/01 04:34:22;;;;;;;;;;;;;;;2.59;100.00;98542.34;4955502;28;19922;-83
2021/12/01 04:36:49;;;;;;;;;;;;;;;2.61;100.00;98532.69;4938354;29;20361;-84
2021/12/01 04:39:15;;;;;;;;;;;;;;;2.70;100.00;98531.56;4954760;28;20464;-83
2021/12/01 04:41:49;;;;;;;;;;;;;;;2.68;100.00;98528.13;4954227;28;19918;-84
2021/12/01 04:44:15;;;;;;;;;;;;;;;2.69;100.00;98522.84;4954708;28;20408;-82
2021/12/01 04:46:43;;;;;;;;;;;;;;;2.75;100.00;98513.13;4955845;28;19962;-83
2021/12/01 04:49:09;;;;;;;;;;;;;;;2.76;100.00;98506.97;4955468;28;19922;-82
2021/12/01 04:51:35;;;;;;;;;;;;;;;2.77;100.00;98495.59;4955281;28;19925;-82
2021/12/01 04:54:02;;;;;;;;;;;;;;;2.69;100.00;98478.38;4955181;28;20357;-84
2021/12/01 04:56:27;;;;;;;;;;;;;;;2.77;100.00;98485.97;4953409;28;20251;-84
2021/12/01 04:58:52;;;;;;;;;;;;;;;2.77;100.00;98483.38;4937895;29;20005;-84
2021/12/01 05:01:18;;;;;;;;;;;;;;;2.72;100.00;98475.66;4955180;28;19918;-83
2021/12/01 05:03:43;;;;;;;;;;;;;;;2.77;100.00;98466.81;4954331;28;20354;-84
2021/12/01 05:06:12;;;;;;;;;;;;;;;2.79;100.00;98455.38;4937616;29;20095;-83
2021/12/01 05:08:37;;;;;;;;;;;;;;;3.07;100.00;98452.72;4954205;28;19921;-85
2021/12/01 05:11:02;;;;;;;;;;;;;;;3.33;100.00;98447.50;4953381;28;19926;-84
2021/12/01 05:13:27;;;;;;;;;;;;;;;3.30;100.00;98440.59;4954073;28;20405;-84
2021/12/01 05:15:53;;;;;;;;;;;;;;;3.24;100.00;98440.84;4954817;28;19918;-84
2021/12/01 05:18:18;;;;;;;;;;;;;;;3.24;100.00;98433.84;4954792;29;19954;-84
2021/12/01 05:20:43;;;;;;;;;;;;;;;3.18;100.00;98425.34;4954954;28;19926;-84
2021/12/01 05:23:11;;;;;;;;;;;;;;;3.18;100.00;98427.97;4937310;28;20362;-84
2021/12/01 05:25:36;;;;;;;;;;;;;;;3.08;100.00;98428.28;4953391;28;19918;-84
2021/12/01 05:28:01;;;;;;;;;;;;;;;3.12;100.00;98418.53;4954500;28;20420;-84
2021/12/01 05:30:27;;;;;;;;;;;;;;;3.12;100.00;98408.06;4954310;29;20020;-84
2021/12/01 05:32:52;;;;;;;;;;;;;;;3.14;100.00;98408.88;4937333;29;20362;-84
2021/12/01 05:35:18;;;;;;;;;;;;;;;3.12;100.00;98402.00;4954367;28;19974;-84
2021/12/01 05:37:43;;;;;;;;;;;;;;;3.15;100.00;98391.41;4954442;28;20275;-84
2021/12/01 05:40:09;;;;;;;;;;;;;;;3.13;100.00;98381.00;4954277;29;20092;-84
2021/12/01 05:42:34;;;;;;;;;;;;;;;3.11;100.00;98371.50;4935746;29;20001;-84
2021/12/01 05:44:59;;;;;;;;;;;;;;;3.07;100.00;98376.81;4954391;28;19962;-84
2021/12/01 05:47:24;;;;;;;;;;;;;;;3.05;100.00;98370.78;4954221;29;19926;-84
2021/12/01 08:53:59;;;;;;;;;;;;;;;3.01;84.23;98010.69;4983160;28;19933;-83
2021/12/01 08:56:24;;;;;;;;;;;;;;;3.04;84.15;98017.56;4984337;28;19929;-83
2021/12/01 08:58:50;;;;;;;;;;;;;;;3.03;84.10;98016.72;4966548;28;19957;-82
2021/12/01 09:01:15;;;;;;;;;;;;;;;3.00;83.92;98019.47;4966082;28;19926;-84
2021/12/01 09:03:41;;;;;;;;;;;;;;;3.00;83.75;98008.13;4984849;28;19957;-82
2021/12/01 09:06:06;;;;;;;;;;;;;;;3.00;83.64;98009.00;4982568;28;19929;-83
2021/12/01 09:08:32;;;;;;;;;;;;;;;3.05;83.68;98000.97;4984021;28;20365;-82
2021/12/01 09:10:58;;;;;;;;;;;;;;;3.03;83.65;98008.88;4983814;28;20337;-84
2021/12/01 09:13:25;;;;;;;;;;;;;;;3.05;83.37;97999.19;4984256;28;19972;-82
2021/12/01 09:15:52;;;;;;;;;;;;;;;3.02;82.97;97988.84;4983947;28;19924;-83
2021/12/01 09:18:18;;;;;;;;;;;;;;;2.97;82.77;97979.47;4983594;28;20361;-83
2021/12/01 09:20:45;;;;;;;;;;;;;;;2.96;82.82;97973.38;4982554;28;19921;-83
2021/12/01 09:23:10;;;;;;;;;;;;;;;2.99;82.88;97973.25;4983901;28;19918;-83
2021/12/01 09:25:36;;;;;;;;;;;;;;;3.03;82.79;97969.63;4982581;28;19950;-83
2021/12/01 09:28:01;;;;;;;;;;;;;;;3.01;82.45;97960.13;4983673;28;20275;-82
2021/12/01 09:30:27;;;;;;;;;;;;;;;3.00;82.57;97959.28;4983451;28;19918;-83
2021/12/01 09:32:52;;;;;;;;;;;;;;;3.05;82.19;97957.31;4983357;28;19917;-83
2021/12/01 09:35:17;;;;;;;;;;;;;;;3.01;82.10;97947.88;4982484;28;20277;-85
2021/12/01 09:37:43;;;;;;;;;;;;;;;3.03;82.14;97950.44;4983359;28;19924;-83
2021/12/01 09:40:13;;;;;;;;;;;;;;;3.04;82.06;97946.91;4998272;28;20020;-83
2021/12/01 09:42:41;;;;;;;;;;;;;;;3.07;81.89;97937.16;4983790;28;20021;-83
2021/12/01 09:45:07;;;;;;;;;;;;;;;3.06;81.86;97937.22;4982931;28;20064;-84
2021/12/01 09:47:32;;;;;;;;;;;;;;;3.06;81.79;97940.72;4982933;28;20020;-84
2021/12/01 09:49:57;;;;;;;;;;;;;;;3.06;81.57;97931.97;4983063;28;19922;-82
2021/12/01 09:52:23;;;;;;;;;;;;;;;3.11;81.71;97922.16;4964247;28;19929;-83
2021/12/01 09:54:49;;;;;;;;;;;;;;;3.08;81.58;97919.72;4965390;28;19933;-83
2021/12/01 09:57:14;;;;;;;;;;;;;;;3.15;81.59;97918.53;4998075;28;19922;-83
2021/12/01 09:59:43;;;;;;;;;;;;;;;3.14;81.61;97910.72;4966001;28;19922;-83
2021/12/01 10:02:09;;;;;;;;;;;;;;;3.19;81.56;97908.75;4982408;28;19957;-84
2021/12/01 10:04:34;;;;;;;;;;;;;;;3.20;81.57;97897.38;4983047;28;19918;-83
2021/12/01 10:07:15;;;;;;;;;;;;;;;3.24;81.71;97897.19;4981985;28;19928;-83
2021/12/01 10:09:45;;;;;;;;;;;;;;;3.23;81.75;97886.78;4982186;28;19924;-85
2021/12/01 10:12:11;;;;;;;;;;;;;;;3.24;81.77;97884.09;4983086;28;19928;-83
2021/12/01 10:14:36;;;;;;;;;;;;;;;3.24;81.73;97875.41;4982758;28;19918;-84
2021/12/01 10:17:02;;;;;;;;;;;;;;;3.30;81.73;97880.34;4982588;28;19922;-83
2021/12/01 10:19:30;;;;;;;;;;;;;;;3.27;81.58;97885.72;4982533;28;19917;-84
2021/12/01 10:21:56;;;;;;;;;;;;;;;3.33;81.62;97872.38;4981269;28;20033;-83
2021/12/01 10:24:26;;;;;;;;;;;;;;;3.30;81.35;97869.88;4982529;28;19921;-83
2021/12/01 10:26:58;;;;;;;;;;;;;;;3.33;81.42;97864.50;4983066;28;19964;-83
2021/12/01 10:29:30;;;;;;;;;;;;;;;3.39;81.37;97868.63;4982210;28;20013;-83
2021/12/01 10:31:55;;;;;;;;;;;;;;;3.42;81.50;97856.25;4982454;28;20463;-83
2021/12/01 10:34:31;;;;;;;;;;;;;;;3.42;81.42;97856.25;4983129;28;20004;-83
2021/12/01 10:37:15;;;;;;;;;;;;;;;3.49;81.56;97848.13;4979575;28;19969;-82
2021/12/01 10:39:43;;;;;;;;;;;;;;;3.47;81.54;97836.88;4982006;28;20420;-83
2021/12/01 10:42:09;;;;;;;;;;;;;;;3.45;81.57;97829.09;4980944;28;20011;-83
2021/12/01 10:44:35;;;;;;;;;;;;;;;3.52;81.49;97832.28;4982386;28;19929;-83
2021/12/01 10:47:15;;;;;;;;;;;;;;;3.51;81.53;97822.72;4982753;28;19917;-83
2021/12/01 10:49:42;;;;;;;;;;;;;;;3.53;81.59;97824.34;4979512;28;19925;-83
2021/12/01 10:52:28;;;;;;;;;;;;;;;3.56;81.44;97813.75;4980678;28;19932;-83
2021/12/01 10:55:11;;;;;;;;;;;;;;;3.58;81.56;97816.28;4996384;28;19922;-83
2021/12/01 10:57:38;;;;;;;;;;;;;;;3.57;81.40;97812.81;4981421;28;19925;-83
2021/12/01 11:00:10;;;;;;;;;;;;;;;3.62;81.49;97789.03;4981132;28;20317;-83
2021/12/01 11:02:35;;;;;;;;;;;;;;;3.60;81.52;97794.34;4965942;28;19951;-83
2021/12/01 11:05:00;;;;;;;;;;;;;;;3.66;81.34;97787.97;4968251;28;20392;-84
2021/12/01 11:07:29;;;;;;;;;;;;;;;3.70;81.25;97786.91;4984499;28;19922;-84
2021/12/01 11:10:14;;;;;;;;;;;;;;;3.72;81.23;97777.22;4982909;28;19928;-83
2021/12/01 11:12:41;;;;;;;;;;;;;;;3.73;81.25;97778.88;5000772;28;20388;-83
2021/12/01 11:15:16;;;;;;;;;;;;;;;3.75;81.17;97766.59;4985097;28;19957;-83
2021/12/01 11:17:55;;;;;;;;;;;;;;;3.77;80.96;97762.13;5072476;27;1993150;-83
2021/12/01 11:20:32;;;;;;;;;;;;;;;3.84;80.96;97762.66;5139591;27;19927;-83
2021/12/01 11:23:30;;;;;;;;;;;;;;;3.85;80.93;97758.31;5139744;27;19924;-83
2021/12/01 11:26:04;;;;;;;;;;;;;;;3.84;81.08;97751.34;5094995;27;19927;-83
2021/12/01 11:28:32;;;;;;;;;;;;;;;3.89;80.90;97746.72;5122656;27;19926;-83
2021/12/01 11:30:59;;;;;;;;;;;;;;;3.87;80.88;97743.34;5141277;27;19972;-83
2021/12/01 11:33:25;;;;;;;;;;;;;;;3.87;80.80;97738.09;5140133;27;19947;-83
2021/12/01 11:35:52;;;;;;;;;;;;;;;3.89;80.51;97737.09;5137971;27;19974;-83
2021/12/01 11:38:18;;;;;;;;;;;;;;;3.91;80.46;97731.78;5147568;27;19927;-83
2021/12/01 11:40:44;;;;;;;;;;;;;;;3.94;80.46;97729.00;5122613;27;20347;-83
2021/12/01 11:43:11;;;;;;;;;;;;;;;3.96;80.71;97714.91;5120790;27;19964;-83
2021/12/01 11:45:41;;;;;;;;;;;;;;;3.96;80.57;97717.53;5139753;27;19922;-83
2021/12/01 11:48:11;;;;;;;;;;;;;;;4.02;80.58;97710.28;5139621;27;20350;-84
2021/12/01 11:50:41;;;;;;;;;;;;;;;3.99;80.87;97706.06;5137267;27;19920;-83
2021/12/01 11:53:32;;;;;;;;;;;;;;;3.99;80.67;97700.84;5140125;27;19919;-84
2021/12/01 11:56:05;;;;;;;;;;;;;;;3.98;80.88;97696.50;5140520;27;19965;-83
2021/12/01 11:58:42;;;;;;;;;;;;;;;3.97;80.53;97700.91;5140081;27;20305;-85
2021/12/01 12:01:19;;;;;;;;;;;;;;;3.96;80.41;97683.47;5140241;27;19930;-83
2021/12/01 12:03:45;;;;;;;;;;;;;;;3.99;80.23;97682.50;5138902;27;19924;-83
2021/12/01 12:06:26;;;;;;;;;;;;;;;4.05;80.41;97687.41;5138630;27;19919;-83
2021/12/01 12:08:59;;;;;;;;;;;;;;;4.09;80.68;97677.63;5141154;27;20386;-84
2021/12/01 12:11:38;;;;;;;;;;;;;;;4.08;81.05;97675.94;5139894;27;19919;-83
2021/12/01 12:14:06;;;;;;;;;;;;;;;4.09;81.11;97665.38;5121715;27;19923;-83
2021/12/01 12:16:32;;;;;;;;;;;;;;;4.17;81.18;97664.97;5138955;27;20041;-84
2021/12/01 12:18:59;;;;;;;;;;;;;;;4.15;81.11;97659.81;5138426;27;20009;-83
2021/12/01 12:24:17;;;;;;;;;;;;;;;4.18;81.06;97654.41;5139919;27;20327;-84
2021/12/01 12:26:44;;;;;;;;;;;;;;;4.17;81.00;97647.47;5139274;27;20005;-84
2021/12/01 12:29:17;;;;;;;;;;;;;;;4.23;81.09;97643.69;5107581;27;19920;-84
2021/12/01 12:31:44;;;;;;;;;;;;;;;4.27;81.09;97633.91;5126081;27;19924;-84
2021/12/01 12:34:14;;;;;;;;;;;;;;;4.24;81.21;97634.06;5126449;27;20365;-84
2021/12/01 12:36:42;;;;;;;;;;;;;;;4.25;81.14;97625.28;5123446;27;19963;-83
2021/12/01 12:39:09;;;;;;;;;;;;;;;4.31;81.49;97627.59;5125715;27;19954;-83
2021/12/01 12:42:03;;;;;;;;;;;;;;;4.28;81.42;97620.72;5125352;27;20076;-83
2021/12/01 12:44:29;;;;;;;;;;;;;;;4.32;81.35;97627.50;5124843;27;19920;-83
2021/12/01 12:47:05;;;;;;;;;;;;;;;4.33;81.37;97620.47;5124918;27;19919;-84
2021/12/01 12:49:37;;;;;;;;;;;;;;;4.37;81.44;97624.63;5106423;27;19926;-84
2021/12/01 12:52:20;;;;;;;;;;;;;;;4.51;82.02;97624.75;5123644;27;19930;-83
2021/12/01 12:54:46;;;;;;;;;;;;;;;4.68;83.41;97617.78;5124539;27;20018;-84
2021/12/01 12:57:13;;;;;;;;;;;;;;;4.76;84.88;97605.09;5125095;27;20006;-84
2021/12/01 12:59:39;;;;;;;;;;;;;;;4.81;86.00;97597.81;5124684;27;19919;-83
2021/12/01 13:02:07;;;;;;;;;;;;;;;4.81;87.14;97597.81;5124119;27;19924;-84
2021/12/01 13:07:37;;;;;;;;;;;;;;;4.76;88.58;97596.38;5124018;27;19922;-83
2021/12/01 13:10:41;;;;;;;;;;;;;;;4.67;89.09;97590.66;5124311;27;19919;-84
2021/12/01 13:13:10;;;;;;;;;;;;;;;4.57;89.60;97597.34;5072911;28;19966;-85
2021/12/01 13:15:40;;;;;;;;;;;;;;;4.51;89.73;97601.13;5081238;28;19925;-84
2021/12/01 13:18:08;;;;;;;;;;;;;;;4.34;90.30;97599.41;5092576;28;19927;-84
2021/12/01 13:20:38;;;;;;;;;;;;;;;4.39;90.71;97593.06;5101162;28;19919;-82
2021/12/01 13:23:19;;;;;;;;;;;;;;;4.38;91.29;97588.78;5102422;28;19916;-84
2021/12/01 13:25:53;;;;;;;;;;;;;;;4.31;93.59;97581.22;5104357;28;19947;-84
2021/12/01 13:28:26;;;;;;;;;;;;;;;4.40;95.17;97576.41;5102647;28;19932;-84
2021/12/01 13:30:53;;;;;;;;;;;;;;;4.52;97.47;97571.38;5103104;28;20252;-84
2021/12/01 13:33:18;;;;;;;;;;;;;;;4.66;100.00;97559.28;5102373;28;19932;-84
2021/12/01 13:35:43;;;;;;;;;;;;;;;4.89;100.00;97563.28;5102811;28;19919;-83
2021/12/01 13:38:09;;;;;;;;;;;;;;;5.03;100.00;97554.66;5103839;28;19920;-84
2021/12/01 13:40:37;;;;;;;;;;;;;;;5.17;100.00;97564.34;5109762;28;19974;-83
2021/12/01 13:43:03;;;;;;;;;;;;;;;5.26;100.00;97561.22;5104133;28;19959;-83
2021/12/01 13:45:28;;;;;;;;;;;;;;;5.34;100.00;97566.03;5103582;28;19919;-84
2021/12/01 13:47:53;;;;;;;;;;;;;;;5.42;100.00;97561.19;5103494;28;19923;-84
2021/12/01 13:50:20;;;;;;;;;;;;;;;5.44;100.00;97559.31;5102830;28;20379;-83
2021/12/01 13:52:47;;;;;;;;;;;;;;;5.58;100.00;97551.47;5102639;28;19920;-84
2021/12/01 13:55:25;;;;;;;;;;;;;;;5.60;100.00;97554.03;5103303;28;19951;-84
2021/12/01 13:57:52;;;;;;;;;;;;;;;5.66;100.00;97563.34;5102929;28;20011;-83
2021/12/01 14:00:39;;;;;;;;;;;;;;;5.70;100.00;97560.44;5103330;28;20022;-84
2021/12/01 14:03:05;;;;;;;;;;;;;;;5.76;100.00;97551.34;5103603;28;19916;-83
2021/12/01 14:05:30;;;;;;;;;;;;;;;5.80;100.00;97558.97;5102077;28;20337;-85
2021/12/01 14:08:06;;;;;;;;;;;;;;;5.82;100.00;97564.13;5102819;28;20007;-84
2021/12/01 14:10:37;;;;;;;;;;;;;;;5.87;100.00;97567.34;5102781;28;20007;-83
2021/12/01 14:13:03;;;;;;;;;;;;;;;5.91;100.00;97574.09;5103158;28;19965;-83
2021/12/01 14:15:30;;;;;;;;;;;;;;;5.93;100.00;97568.75;5101980;28;19920;-84
2021/12/01 14:17:55;;;;;;;;;;;;;;;6.00;100.00;97570.13;5121756;27;19920;-83
2021/12/01 14:20:24;;;;;;;;;;;;;;;6.02;100.00;97576.13;5122427;27;20316;-84
2021/12/01 14:22:51;;;;;;;;;;;;;;;6.05;100.00;97578.59;5122674;27;19912;-82
2021/12/01 14:25:20;;;;;;;;;;;;;;;6.12;100.00;97576.44;5105440;27;19950;-84
2021/12/01 14:27:45;;;;;;;;;;;;;;;5.59;100.00;97579.47;5123385;27;19922;-82
2021/12/01 14:30:13;;;;;;;;;;;;;;;5.01;100.00;97574.88;5123148;27;20018;-84
2021/12/01 14:32:38;;;;;;;;;;;;;;;4.63;100.00;97593.56;5123060;27;20002;-84
2021/12/01 14:35:05;;;;;;;;;;;;;;;4.53;100.00;97591.44;5104206;27;20476;-84
2021/12/01 14:37:31;;;;;;;;;;;;;;;4.38;100.00;97584.38;5121761;27;19920;-84
2021/12/01 14:40:07;;;;;;;;;;;;;;;4.31;100.00;97588.25;5123262;27;19922;-84
2021/12/01 14:42:32;;;;;;;;;;;;;;;4.26;100.00;97585.00;5122799;27;20006;-84
2021/12/01 14:45:05;;;;;;;;;;;;;;;4.16;100.00;97589.88;5123232;27;20017;-84
2021/12/01 14:47:30;;;;;;;;;;;;;;;4.07;100.00;97591.22;5122643;27;21020;-83
2021/12/01 14:49:56;;;;;;;;;;;;;;;4.03;99.06;97602.78;5122750;27;20007;-85
2021/12/01 14:52:26;;;;;;;;;;;;;;;3.97;98.31;97605.69;5102170;27;19925;-84
2021/12/01 14:54:54;;;;;;;;;;;;;;;3.99;97.77;97603.88;5123448;27;19920;-84
2021/12/01 14:57:20;;;;;;;;;;;;;;;3.94;97.23;97611.09;5123191;27;19968;-84
2021/12/01 14:59:54;;;;;;;;;;;;;;;3.87;96.85;97614.97;5122910;27;19962;-83
2021/12/01 15:02:32;;;;;;;;;;;;;;;3.79;96.43;97626.66;5129396;27;19967;-85
2021/12/01 15:05:03;;;;;;;;;;;;;;;3.83;96.54;97624.75;5122925;27;19948;-83
2021/12/01 15:07:29;;;;;;;;;;;;;;;3.85;95.64;97636.00;5121339;27;19931;-84
2021/12/01 15:09:54;;;;;;;;;;;;;;;3.74;95.16;97620.81;5122425;27;19915;-83
2021/12/01 15:12:26;;;;;;;;;;;;;;;3.70;94.72;97621.91;5122573;28;19960;-83
2021/12/01 15:14:52;;;;;;;;;;;;;;;3.64;94.19;97617.78;5122275;28;20270;-84
2021/12/01 15:17:17;;;;;;;;;;;;;;;3.63;94.11;97623.09;5122251;28;19923;-84
2021/12/01 15:20:02;;;;;;;;;;;;;;;3.65;94.31;97623.88;5122976;28;20369;-84
2021/12/01 15:22:27;;;;;;;;;;;;;;;3.67;93.96;97629.91;5122319;28;20424;-85
2021/12/01 15:24:53;;;;;;;;;;;;;;;3.68;94.19;97630.75;5122704;28;19923;-84
2021/12/01 15:27:18;;;;;;;;;;;;;;;3.64;94.05;97619.56;5121456;28;19920;-84
2021/12/01 15:29:43;;;;;;;;;;;;;;;3.66;93.34;97622.13;5122289;28;19920;-84
2021/12/01 15:32:10;;;;;;;;;;;;;;;3.61;93.17;97619.72;5122587;28;19965;-84
2021/12/01 15:34:35;;;;;;;;;;;;;;;3.59;93.29;97624.16;5122356;28;19974;-83
2021/12/01 15:37:01;;;;;;;;;;;;;;;3.56;92.34;97621.72;5120839;28;19963;-83
2021/12/01 15:39:29;;;;;;;;;;;;;;;3.52;92.12;97625.41;5122175;28;20415;-84
2021/12/01 15:41:56;;;;;;;;;;;;;;;3.50;92.16;97625.47;5122718;28;20378;-83
2021/12/01 15:44:22;;;;;;;;;;;;;;;3.51;91.99;97629.81;5122929;28;19924;-83
2021/12/01 15:46:47;;;;;;;;;;;;;;;3.45;92.02;97640.56;5122100;28;20001;-84
2021/12/01 15:49:15;;;;;;;;;;;;;;;3.43;91.63;97656.34;5103906;28;19916;-83
2021/12/01 15:51:41;;;;;;;;;;;;;;;3.46;91.29;97678.91;5120541;28;19927;-83
2021/12/01 15:54:06;;;;;;;;;;;;;;;3.42;91.45;97682.59;5121681;28;19923;-84
2021/12/01 15:56:32;;;;;;;;;;;;;;;3.41;91.57;97689.59;5121317;28;19964;-84
2021/12/01 15:58:58;;;;;;;;;;;;;;;3.36;91.67;97683.72;5103461;28;20362;-83
2021/12/01 16:01:23;;;;;;;;;;;;;;;3.36;91.12;97709.06;5102954;28;19998;-85
2021/12/01 16:03:48;;;;;;;;;;;;;;;3.36;90.79;97695.97;5124678;27;20336;-83
2021/12/01 16:06:14;;;;;;;;;;;;;;;3.34;90.69;97711.75;5104125;27;19975;-84
2021/12/01 16:08:39;;;;;;;;;;;;;;;3.33;90.90;97720.53;5107175;27;19944;-83
2021/12/01 16:11:09;;;;;;;;;;;;;;;3.37;91.05;97713.41;5124563;27;20293;-84
2021/12/01 16:13:35;;;;;;;;;;;;;;;3.31;90.73;97721.53;5107908;27;19926;-83
2021/12/01 16:16:00;;;;;;;;;;;;;;;3.26;90.38;97730.44;5121071;27;19924;-84
2021/12/01 16:18:26;;;;;;;;;;;;;;;3.31;90.64;97732.00;5107763;27;19926;-83
2021/12/01 16:20:51;;;;;;;;;;;;;;;3.28;90.58;97732.97;5106525;27;20362;-84
2021/12/01 16:23:16;;;;;;;;;;;;;;;3.27;89.81;97739.13;5106415;27;19919;-84
2021/12/01 16:25:43;;;;;;;;;;;;;;;3.26;89.70;97734.84;5106591;27;19967;-84
2021/12/01 16:28:09;;;;;;;;;;;;;;;3.23;89.45;97734.97;5107794;27;19928;-84
2021/12/01 16:30:34;;;;;;;;;;;;;;;3.20;89.12;97740.34;5104294;27;19920;-83
2021/12/01 16:33:00;;;;;;;;;;;;;;;3.18;89.27;97729.09;5107082;27;19967;-84
2021/12/01 16:35:26;;;;;;;;;;;;;;;3.17;89.11;97737.88;5125144;27;20410;-84
2021/12/01 16:37:53;;;;;;;;;;;;;;;3.11;88.67;97738.13;5125724;27;20017;-85
2021/12/01 16:40:19;;;;;;;;;;;;;;;3.11;88.90;97740.75;5104804;27;20350;-84
2021/12/01 16:42:46;;;;;;;;;;;;;;;3.16;88.81;97738.78;5124068;27;19923;-84
2021/12/01 16:45:13;;;;;;;;;;;;;;;3.15;88.53;97740.56;5124009;27;20420;-84
2021/12/01 16:47:38;;;;;;;;;;;;;;;3.08;88.18;97747.84;5124183;27;20632;-84
2021/12/01 16:50:04;;;;;;;;;;;;;;;3.07;88.73;97753.97;5105248;27;19924;-84
2021/12/01 16:52:29;;;;;;;;;;;;;;;3.08;88.36;97752.22;5105990;27;19933;-83
2021/12/01 16:54:56;;;;;;;;;;;;;;;3.04;88.35;97756.72;5125854;27;19919;-84
2021/12/01 16:57:22;;;;;;;;;;;;;;;3.04;88.63;97761.97;5124744;27;19919;-82
2021/12/01 16:59:47;;;;;;;;;;;;;;;3.05;88.43;97763.66;5124789;27;20010;-85
2021/12/01 17:02:12;;;;;;;;;;;;;;;3.03;88.46;97754.19;5124647;27;19915;-84
2021/12/01 17:04:39;;;;;;;;;;;;;;;3.04;88.14;97756.72;5125014;27;20051;-84
2021/12/01 17:07:13;;;;;;;;;;;;;;;2.99;88.04;97761.31;5105163;27;20411;-85
2021/12/01 17:09:39;;;;;;;;;;;;;;;2.98;87.92;97767.47;5124804;27;20406;-85
2021/12/01 17:12:05;;;;;;;;;;;;;;;2.99;87.66;97769.16;5105876;27;19976;-84
2021/12/01 17:14:30;;;;;;;;;;;;;;;2.94;87.38;97771.16;5105776;27;20404;-84
2021/12/01 17:16:56;;;;;;;;;;;;;;;2.95;87.43;97764.13;5124409;27;19920;-84
2021/12/01 17:19:21;;;;;;;;;;;;;;;2.91;87.24;97768.66;5105654;27;19923;-85
2021/12/01 17:21:48;;;;;;;;;;;;;;;2.90;86.97;97770.44;5104724;27;19915;-84
2021/12/01 17:24:13;;;;;;;;;;;;;;;2.90;86.80;97777.41;5106124;27;19919;-84
2021/12/01 17:26:39;;;;;;;;;;;;;;;2.93;86.69;97771.22;5124115;27;20016;-84
2021/12/01 17:29:04;;;;;;;;;;;;;;;2.84;86.29;97768.09;5106131;27;20294;-84
2021/12/01 17:31:35;;;;;;;;;;;;;;;2.86;86.08;97773.25;5124432;27;19945;-85
2021/12/01 17:34:00;;;;;;;;;;;;;;;2.89;86.00;97765.28;5123979;27;19916;-84
2021/12/01 17:36:25;;;;;;;;;;;;;;;2.89;85.96;97773.97;5104248;27;19926;-84
2021/12/01 17:38:51;;;;;;;;;;;;;;;2.85;85.68;97766.31;5105935;27;19916;-84
2021/12/01 17:41:16;;;;;;;;;;;;;;;2.82;85.87;97769.06;5124252;27;20431;-84
2021/12/01 17:43:42;;;;;;;;;;;;;;;2.81;85.94;97778.69;5122665;27;20371;-84
2021/12/01 17:46:14;;;;;;;;;;;;;;;2.80;86.07;97769.13;5123754;27;19919;-84
2021/12/01 17:48:42;;;;;;;;;;;;;;;2.85;85.88;97779.38;5105335;27;20393;-84
2021/12/01 17:51:07;;;;;;;;;;;;;;;2.82;85.67;97775.13;5122514;27;20038;-85
2021/12/01 17:53:33;;;;;;;;;;;;;;;2.82;85.50;97777.75;5124333;27;19931;-85
2021/12/01 17:55:58;;;;;;;;;;;;;;;2.78;85.00;97775.34;5123801;27;19951;-84
2021/12/01 17:58:24;;;;;;;;;;;;;;;2.81;84.63;97776.06;5105307;27;19922;-85
2021/12/01 18:00:49;;;;;;;;;;;;;;;2.76;84.56;97777.16;5123468;27;19923;-84
2021/12/01 18:03:14;;;;;;;;;;;;;;;2.73;84.61;97793.88;5123764;27;19920;-84
2021/12/01 18:05:40;;;;;;;;;;;;;;;2.73;84.57;97784.25;5121969;27;19927;-84
2021/12/01 18:08:08;;;;;;;;;;;;;;;2.76;84.58;97783.28;5124210;27;19926;-85
2021/12/01 18:10:35;;;;;;;;;;;;;;;2.76;84.44;97778.03;5123149;27;19922;-84
2021/12/01 18:13:00;;;;;;;;;;;;;;;2.73;84.38;97779.00;5123775;27;19915;-86
2021/12/01 18:15:25;;;;;;;;;;;;;;;2.77;84.12;97781.50;5123937;27;19919;-83
2021/12/01 18:17:50;;;;;;;;;;;;;;;2.82;84.27;97782.97;5122563;27;19967;-84
2021/12/01 18:20:16;;;;;;;;;;;;;;;2.78;83.74;97785.81;5124090;27;19920;-85
2021/12/01 18:22:42;;;;;;;;;;;;;;;2.76;83.74;97790.25;5121734;27;20370;-85
2021/12/01 18:25:07;;;;;;;;;;;;;;;2.79;84.09;97798.81;5123062;27;19920;-84
2021/12/01 18:27:33;;;;;;;;;;;;;;;2.76;83.94;97804.19;5122784;27;20058;-85
2021/12/01 18:29:58;;;;;;;;;;;;;;;2.75;83.68;97817.34;5123416;27;19958;-83
2021/12/01 18:32:24;;;;;;;;;;;;;;;2.76;83.78;97804.19;5123259;27;20435;-83
2021/12/01 18:34:49;;;;;;;;;;;;;;;2.76;83.78;97819.03;5122856;27;20396;-83
2021/12/01 18:37:16;;;;;;;;;;;;;;;2.77;83.74;97828.56;5122291;27;20010;-83
2021/12/01 18:39:41;;;;;;;;;;;;;;;2.77;83.52;97826.81;5122816;27;19927;-84
2021/12/01 18:42:08;;;;;;;;;;;;;;;2.77;83.55;97825.97;5122746;27;19922;-84
2021/12/01 18:44:34;;;;;;;;;;;;;;;2.79;83.76;97824.13;5104651;27;19954;-84
2021/12/01 18:46:59;;;;;;;;;;;;;;;2.79;84.02;97838.03;5104181;27;19966;-83
2021/12/01 18:49:25;;;;;;;;;;;;;;;2.84;83.74;97846.56;5104714;27;19916;-84
2021/12/01 18:51:50;;;;;;;;;;;;;;;2.81;83.93;97845.81;5098531;27;19920;-84
2021/12/01 18:54:17;;;;;;;;;;;;;;;2.82;83.76;97852.78;5122325;27;19916;-83
2021/12/01 18:56:42;;;;;;;;;;;;;;;2.85;83.72;97866.56;5122457;27;20291;-83
2021/12/01 18:59:08;;;;;;;;;;;;;;;2.82;83.79;97871.06;5123192;27;19920;-83
2021/12/01 19:01:33;;;;;;;;;;;;;;;2.76;83.69;97871.31;5121987;27;19959;-83
2021/12/01 19:03:58;;;;;;;;;;;;;;;2.80;83.53;97873.75;5122996;27;20000;-81
2021/12/01 19:06:24;;;;;;;;;;;;;;;2.79;83.48;97877.28;5103056;28;19923;-82
2021/12/01 19:08:50;;;;;;;;;;;;;;;2.80;83.40;97883.38;5103961;28;20068;-82
2021/12/01 19:11:16;;;;;;;;;;;;;;;2.80;83.06;97879.00;5122340;27;19916;-84
2021/12/01 19:13:42;;;;;;;;;;;;;;;2.78;82.99;97888.66;5103993;28;19955;-84
2021/12/01 19:16:08;;;;;;;;;;;;;;;2.73;82.58;97894.09;5121737;28;20440;-82
2021/12/01 19:18:33;;;;;;;;;;;;;;;2.76;82.39;97889.63;5122361;28;19920;-84
2021/12/01 19:20:59;;;;;;;;;;;;;;;2.77;82.16;97892.19;5119951;28;19923;-84
2021/12/01 19:23:25;;;;;;;;;;;;;;;2.83;82.46;97891.09;5122173;28;19922;-82
2021/12/01 19:25:50;;;;;;;;;;;;;;;2.82;82.43;97899.84;5122879;28;19923;-81
2021/12/01 19:28:16;;;;;;;;;;;;;;;2.84;82.17;97903.25;5122632;28;19912;-82
2021/12/01 19:30:42;;;;;;;;;;;;;;;2.85;82.28;97902.34;5122127;28;19919;-83
2021/12/01 19:33:07;;;;;;;;;;;;;;;2.81;82.02;97899.00;5122360;28;19952;-84
2021/12/01 19:35:34;;;;;;;;;;;;;;;2.85;81.91;97904.97;5121357;28;19926;-84
2021/12/01 19:37:59;;;;;;;;;;;;;;;2.80;81.51;97894.69;5122972;27;19969;-82
2021/12/01 19:40:25;;;;;;;;;;;;;;;2.79;81.32;97906.03;5126493;27;19935;-81
2021/12/01 19:42:50;;;;;;;;;;;;;;;2.86;81.36;97919.75;5108388;27;20006;-82
2021/12/01 19:45:16;;;;;;;;;;;;;;;2.85;81.19;97923.28;5126635;27;19999;-82
2021/12/01 19:47:42;;;;;;;;;;;;;;;2.88;81.07;97920.53;5097476;27;19917;-83
2021/12/01 19:50:09;;;;;;;;;;;;;;;2.83;80.70;97922.50;5126152;27;19923;-83
2021/12/01 19:52:34;;;;;;;;;;;;;;;2.85;80.56;97916.25;5124921;27;20290;-81
2021/12/01 19:55:04;;;;;;;;;;;;;;;2.89;80.58;97922.25;5126353;27;19941;-83
2021/12/01 19:57:31;;;;;;;;;;;;;;;2.87;80.48;97929.28;5125984;27;20018;-84
2021/12/01 19:59:57;;;;;;;;;;;;;;;2.86;80.22;97924.97;5126745;27;19998;-83
2021/12/01 20:02:24;;;;;;;;;;;;;;;3.22;82.92;97937.44;5124986;27;20014;-83
2021/12/01 20:04:50;;;;;;;;;;;;;;;3.06;82.54;97939.84;5125952;27;20020;-82
2021/12/01 20:07:15;;;;;;;;;;;;;;;2.96;81.94;97939.38;5125001;27;20374;-81
2021/12/01 20:09:41;;;;;;;;;;;;;;;2.95;81.66;97940.28;5125706;27;20330;-83
2021/12/01 20:12:06;;;;;;;;;;;;;;;2.93;81.44;97944.72;5125997;27;19939;-81
2021/12/01 20:14:33;;;;;;;;;;;;;;;2.94;81.02;97943.81;5125954;27;19915;-81
2021/12/01 20:17:00;;;;;;;;;;;;;;;2.92;80.86;97950.91;5125517;27;20465;-81
2021/12/01 20:19:26;;;;;;;;;;;;;;;2.91;80.41;97959.66;5125792;27;20292;-82